sensor_id;sensor_type;location;lat;lon;timestamp;P1;durP1;ratioP1;P2;durP2;ratioP2
49514;SDS011;35415;47.870;16.058;2024-03-23T00:54:23;3.47;;;3.00;;
49514;SDS011;35415;47.870;16.058;2024-03-23T00:56:50;5.40;;;2.97;;
49514;SDS011;35415;47.870;16.058;2024-03-23T00:59:17;5.00;;;3.22;;
49514;SDS011;35415;47.870;16.058;2024-03-23T01:01:44;7.72;;;3.15;;
49514;SDS011;35415;47.870;16.058;2024-03-23T01:04:10;5.00;;;2.92;;
49514;SDS011;35415;47.870;16.058;2024-03-23T01:06:37;5.60;;;3.05;;
49514;SDS011;35415;47.870;16.058;2024-03-23T01:09:03;4.00;;;2.88;;
49514;SDS011;35415;47.870;16.058;2024-03-23T01:11:33;5.07;;;3.05;;
49514;SDS011;35415;47.870;16.058;2024-03-23T01:14:00;4.40;;;3.42;;
49514;SDS011;35415;47.870;16.058;2024-03-23T01:16:26;4.55;;;3.05;;
49514;SDS011;35415;47.870;16.058;2024-03-23T01:18:53;5.65;;;3.08;;
49514;SDS011;35415;47.870;16.058;2024-03-23T01:21:19;4.45;;;3.00;;
49514;SDS011;35415;47.870;16.058;2024-03-23T01:23:47;6.28;;;3.20;;
49514;SDS011;35415;47.870;16.058;2024-03-23T01:26:13;5.45;;;2.72;;
49514;SDS011;35415;47.870;16.058;2024-03-23T01:28:41;12.00;;;7.13;;
49514;SDS011;35415;47.870;16.058;2024-03-23T01:31:08;5.78;;;3.40;;
49514;SDS011;35415;47.870;16.058;2024-03-23T01:33:35;5.95;;;3.10;;
49514;SDS011;35415;47.870;16.058;2024-03-23T01:36:01;4.93;;;2.67;;
49514;SDS011;35415;47.870;16.058;2024-03-23T01:38:28;5.97;;;3.13;;
49514;SDS011;35415;47.870;16.058;2024-03-23T01:40:56;3.85;;;2.80;;
49514;SDS011;35415;47.870;16.058;2024-03-23T01:43:24;3.78;;;3.00;;
49514;SDS011;35415;47.870;16.058;2024-03-23T01:45:51;7.00;;;2.53;;
49514;SDS011;35415;47.870;16.058;2024-03-23T01:48:19;7.53;;;3.55;;
49514;SDS011;35415;47.870;16.058;2024-03-23T01:50:46;3.70;;;3.22;;
49514;SDS011;35415;47.870;16.058;2024-03-23T01:53:13;4.88;;;2.70;;
49514;SDS011;35415;47.870;16.058;2024-03-23T01:55:42;6.90;;;2.78;;
49514;SDS011;35415;47.870;16.058;2024-03-23T01:58:10;5.07;;;3.10;;
49514;SDS011;35415;47.870;16.058;2024-03-23T02:00:36;5.15;;;3.17;;
49514;SDS011;35415;47.870;16.058;2024-03-23T02:03:11;4.03;;;3.28;;
49514;SDS011;35415;47.870;16.058;2024-03-23T02:05:47;3.85;;;2.38;;
49514;SDS011;35415;47.870;16.058;2024-03-23T02:08:14;5.97;;;2.95;;
49514;SDS011;35415;47.870;16.058;2024-03-23T02:10:41;5.15;;;2.75;;
49514;SDS011;35415;47.870;16.058;2024-03-23T02:13:09;3.75;;;2.53;;
49514;SDS011;35415;47.870;16.058;2024-03-23T02:15:35;5.65;;;2.90;;
49514;SDS011;35415;47.870;16.058;2024-03-23T02:18:02;6.38;;;3.03;;
49514;SDS011;35415;47.870;16.058;2024-03-23T02:20:30;4.63;;;2.72;;
49514;SDS011;35415;47.870;16.058;2024-03-23T02:22:59;4.00;;;2.75;;
49514;SDS011;35415;47.870;16.058;2024-03-23T02:25:25;4.13;;;2.72;;
49514;SDS011;35415;47.870;16.058;2024-03-23T02:27:52;6.10;;;2.60;;
49514;SDS011;35415;47.870;16.058;2024-03-23T02:30:19;5.43;;;2.83;;
49514;SDS011;35415;47.870;16.058;2024-03-23T02:32:46;4.75;;;2.50;;
49514;SDS011;35415;47.870;16.058;2024-03-23T02:35:12;4.63;;;2.97;;
49514;SDS011;35415;47.870;16.058;2024-03-23T02:37:40;4.05;;;2.72;;
49514;SDS011;35415;47.870;16.058;2024-03-23T02:40:08;3.40;;;2.75;;
49514;SDS011;35415;47.870;16.058;2024-03-23T02:42:36;3.33;;;2.50;;
49514;SDS011;35415;47.870;16.058;2024-03-23T02:45:02;3.55;;;2.72;;
49514;SDS011;35415;47.870;16.058;2024-03-23T02:47:30;4.80;;;3.05;;
49514;SDS011;35415;47.870;16.058;2024-03-23T02:49:56;3.33;;;2.63;;
49514;SDS011;35415;47.870;16.058;2024-03-23T02:52:23;5.20;;;2.80;;
49514;SDS011;35415;47.870;16.058;2024-03-23T02:54:50;4.30;;;2.70;;
49514;SDS011;35415;47.870;16.058;2024-03-23T02:57:19;8.50;;;4.43;;
49514;SDS011;35415;47.870;16.058;2024-03-23T02:59:46;3.63;;;2.72;;
49514;SDS011;35415;47.870;16.058;2024-03-23T03:02:13;2.75;;;2.05;;
49514;SDS011;35415;47.870;16.058;2024-03-23T03:04:40;4.10;;;2.85;;
49514;SDS011;35415;47.870;16.058;2024-03-23T03:07:06;5.13;;;2.80;;
49514;SDS011;35415;47.870;16.058;2024-03-23T03:09:34;4.60;;;2.42;;
49514;SDS011;35415;47.870;16.058;2024-03-23T03:12:00;6.40;;;2.80;;
49514;SDS011;35415;47.870;16.058;2024-03-23T03:14:30;3.00;;;2.33;;
49514;SDS011;35415;47.870;16.058;2024-03-23T03:16:56;4.85;;;2.78;;
49514;SDS011;35415;47.870;16.058;2024-03-23T03:19:23;5.68;;;2.80;;
49514;SDS011;35415;47.870;16.058;2024-03-23T03:21:49;3.47;;;2.42;;
49514;SDS011;35415;47.870;16.058;2024-03-23T03:24:17;4.35;;;2.42;;
49514;SDS011;35415;47.870;16.058;2024-03-23T03:26:43;3.15;;;2.58;;
49514;SDS011;35415;47.870;16.058;2024-03-23T03:29:11;2.72;;;2.20;;
49514;SDS011;35415;47.870;16.058;2024-03-23T03:31:38;4.78;;;3.67;;
49514;SDS011;35415;47.870;16.058;2024-03-23T03:34:06;4.20;;;2.90;;
49514;SDS011;35415;47.870;16.058;2024-03-23T03:36:32;5.63;;;2.90;;
49514;SDS011;35415;47.870;16.058;2024-03-23T03:38:59;5.63;;;3.53;;
49514;SDS011;35415;47.870;16.058;2024-03-23T03:41:25;4.57;;;2.58;;
49514;SDS011;35415;47.870;16.058;2024-03-23T03:43:52;3.95;;;2.80;;
49514;SDS011;35415;47.870;16.058;2024-03-23T03:46:18;3.60;;;2.47;;
49514;SDS011;35415;47.870;16.058;2024-03-23T03:48:47;8.07;;;2.88;;
49514;SDS011;35415;47.870;16.058;2024-03-23T03:51:13;4.47;;;2.95;;
49514;SDS011;35415;47.870;16.058;2024-03-23T03:53:41;5.28;;;3.03;;
49514;SDS011;35415;47.870;16.058;2024-03-23T03:56:07;5.80;;;2.95;;
49514;SDS011;35415;47.870;16.058;2024-03-23T03:58:34;6.63;;;2.35;;
49514;SDS011;35415;47.870;16.058;2024-03-23T04:01:00;4.15;;;2.33;;
49514;SDS011;35415;47.870;16.058;2024-03-23T04:03:28;3.42;;;2.28;;
49514;SDS011;35415;47.870;16.058;2024-03-23T04:05:55;4.65;;;2.42;;
49514;SDS011;35415;47.870;16.058;2024-03-23T04:08:23;4.55;;;2.75;;
49514;SDS011;35415;47.870;16.058;2024-03-23T04:10:49;3.95;;;2.60;;
49514;SDS011;35415;47.870;16.058;2024-03-23T04:13:18;3.65;;;2.80;;
49514;SDS011;35415;47.870;16.058;2024-03-23T04:15:44;4.68;;;2.20;;
49514;SDS011;35415;47.870;16.058;2024-03-23T04:18:11;5.13;;;2.45;;
49514;SDS011;35415;47.870;16.058;2024-03-23T04:20:37;2.10;;;1.80;;
49514;SDS011;35415;47.870;16.058;2024-03-23T04:23:06;4.05;;;1.80;;
49514;SDS011;35415;47.870;16.058;2024-03-23T04:25:32;3.58;;;1.98;;
49514;SDS011;35415;47.870;16.058;2024-03-23T04:27:59;2.95;;;2.03;;
49514;SDS011;35415;47.870;16.058;2024-03-23T04:30:25;3.33;;;2.25;;
49514;SDS011;35415;47.870;16.058;2024-03-23T04:32:54;3.65;;;2.30;;
49514;SDS011;35415;47.870;16.058;2024-03-23T04:35:20;3.40;;;2.15;;
49514;SDS011;35415;47.870;16.058;2024-03-23T04:37:50;2.72;;;1.95;;
49514;SDS011;35415;47.870;16.058;2024-03-23T04:40:20;4.32;;;2.10;;
49514;SDS011;35415;47.870;16.058;2024-03-23T04:42:46;3.85;;;2.00;;
49514;SDS011;35415;47.870;16.058;2024-03-23T04:45:13;5.60;;;2.30;;
49514;SDS011;35415;47.870;16.058;2024-03-23T04:47:41;6.65;;;2.30;;
49514;SDS011;35415;47.870;16.058;2024-03-23T04:50:08;3.70;;;2.50;;
49514;SDS011;35415;47.870;16.058;2024-03-23T04:52:37;2.38;;;2.17;;
49514;SDS011;35415;47.870;16.058;2024-03-23T04:55:04;3.00;;;2.47;;
49514;SDS011;35415;47.870;16.058;2024-03-23T04:57:33;3.40;;;2.10;;
49514;SDS011;35415;47.870;16.058;2024-03-23T05:00:01;3.67;;;2.33;;
49514;SDS011;35415;47.870;16.058;2024-03-23T05:02:28;6.60;;;2.17;;
49514;SDS011;35415;47.870;16.058;2024-03-23T05:04:55;3.30;;;2.30;;
49514;SDS011;35415;47.870;16.058;2024-03-23T05:07:21;3.22;;;2.08;;
49514;SDS011;35415;47.870;16.058;2024-03-23T05:09:48;5.50;;;2.10;;
49514;SDS011;35415;47.870;16.058;2024-03-23T05:12:14;3.13;;;2.13;;
49514;SDS011;35415;47.870;16.058;2024-03-23T05:14:43;2.45;;;1.80;;
49514;SDS011;35415;47.870;16.058;2024-03-23T05:17:09;3.75;;;2.03;;
49514;SDS011;35415;47.870;16.058;2024-03-23T05:19:36;2.22;;;1.52;;
49514;SDS011;35415;47.870;16.058;2024-03-23T05:22:02;3.65;;;1.98;;
49514;SDS011;35415;47.870;16.058;2024-03-23T05:24:30;2.17;;;1.95;;
49514;SDS011;35415;47.870;16.058;2024-03-23T05:26:56;4.45;;;2.38;;
49514;SDS011;35415;47.870;16.058;2024-03-23T05:29:24;3.53;;;1.83;;
49514;SDS011;35415;47.870;16.058;2024-03-23T05:31:52;3.30;;;1.90;;
49514;SDS011;35415;47.870;16.058;2024-03-23T05:34:21;3.72;;;2.03;;
49514;SDS011;35415;47.870;16.058;2024-03-23T05:36:47;5.65;;;2.47;;
49514;SDS011;35415;47.870;16.058;2024-03-23T05:39:15;2.95;;;2.10;;
49514;SDS011;35415;47.870;16.058;2024-03-23T05:41:42;6.80;;;2.97;;
49514;SDS011;35415;47.870;16.058;2024-03-23T05:44:09;4.63;;;2.13;;
49514;SDS011;35415;47.870;16.058;2024-03-23T05:46:36;4.45;;;2.08;;
49514;SDS011;35415;47.870;16.058;2024-03-23T05:49:05;2.78;;;1.85;;
49514;SDS011;35415;47.870;16.058;2024-03-23T05:51:31;2.58;;;1.70;;
49514;SDS011;35415;47.870;16.058;2024-03-23T05:53:59;2.50;;;1.60;;
49514;SDS011;35415;47.870;16.058;2024-03-23T05:56:26;3.40;;;1.92;;
49514;SDS011;35415;47.870;16.058;2024-03-23T05:58:53;2.10;;;1.50;;
49514;SDS011;35415;47.870;16.058;2024-03-23T06:01:20;3.22;;;1.45;;
49514;SDS011;35415;47.870;16.058;2024-03-23T06:03:47;2.28;;;1.63;;
49514;SDS011;35415;47.870;16.058;2024-03-23T06:06:15;1.90;;;1.50;;
49514;SDS011;35415;47.870;16.058;2024-03-23T06:08:42;2.95;;;2.03;;
49514;SDS011;35415;47.870;16.058;2024-03-23T06:11:09;3.38;;;2.50;;
49514;SDS011;35415;47.870;16.058;2024-03-23T06:13:36;2.72;;;1.80;;
49514;SDS011;35415;47.870;16.058;2024-03-23T06:16:02;2.92;;;1.80;;
49514;SDS011;35415;47.870;16.058;2024-03-23T06:18:30;5.03;;;2.80;;
49514;SDS011;35415;47.870;16.058;2024-03-23T06:20:56;2.83;;;2.08;;
49514;SDS011;35415;47.870;16.058;2024-03-23T06:23:25;7.93;;;2.08;;
49514;SDS011;35415;47.870;16.058;2024-03-23T06:25:51;2.42;;;1.70;;
49514;SDS011;35415;47.870;16.058;2024-03-23T06:28:19;3.17;;;2.55;;
49514;SDS011;35415;47.870;16.058;2024-03-23T06:30:46;2.25;;;1.77;;
49514;SDS011;35415;47.870;16.058;2024-03-23T06:33:13;3.25;;;1.85;;
49514;SDS011;35415;47.870;16.058;2024-03-23T06:35:42;2.60;;;2.00;;
49514;SDS011;35415;47.870;16.058;2024-03-23T06:38:09;2.60;;;2.20;;
49514;SDS011;35415;47.870;16.058;2024-03-23T06:40:37;3.78;;;2.33;;
49514;SDS011;35415;47.870;16.058;2024-03-23T06:43:04;5.13;;;2.05;;
49514;SDS011;35415;47.870;16.058;2024-03-23T06:45:31;1.98;;;1.55;;
49514;SDS011;35415;47.870;16.058;2024-03-23T06:47:58;4.97;;;1.75;;
49514;SDS011;35415;47.870;16.058;2024-03-23T06:50:24;2.17;;;1.70;;
49514;SDS011;35415;47.870;16.058;2024-03-23T06:52:53;2.50;;;1.38;;
49514;SDS011;35415;47.870;16.058;2024-03-23T06:55:19;3.83;;;1.60;;
49514;SDS011;35415;47.870;16.058;2024-03-23T06:57:48;2.45;;;1.70;;
49514;SDS011;35415;47.870;16.058;2024-03-23T07:00:14;1.90;;;1.50;;
49514;SDS011;35415;47.870;16.058;2024-03-23T07:02:42;2.28;;;1.45;;
49514;SDS011;35415;47.870;16.058;2024-03-23T07:05:09;6.15;;;2.08;;
49514;SDS011;35415;47.870;16.058;2024-03-23T07:07:37;3.63;;;1.88;;
49514;SDS011;35415;47.870;16.058;2024-03-23T07:10:04;3.35;;;1.88;;
49514;SDS011;35415;47.870;16.058;2024-03-23T07:12:32;2.60;;;1.70;;
49514;SDS011;35415;47.870;16.058;2024-03-23T07:15:00;4.07;;;1.55;;
49514;SDS011;35415;47.870;16.058;2024-03-23T07:17:27;1.98;;;1.70;;
49514;SDS011;35415;47.870;16.058;2024-03-23T07:19:53;2.33;;;1.48;;
49514;SDS011;35415;47.870;16.058;2024-03-23T07:22:20;6.43;;;1.67;;
49514;SDS011;35415;47.870;16.058;2024-03-23T07:24:47;1.90;;;1.50;;
49514;SDS011;35415;47.870;16.058;2024-03-23T07:27:14;4.53;;;1.70;;
49514;SDS011;35415;47.870;16.058;2024-03-23T07:29:40;9.93;;;2.03;;
49514;SDS011;35415;47.870;16.058;2024-03-23T07:32:09;2.75;;;1.40;;
49514;SDS011;35415;47.870;16.058;2024-03-23T07:34:37;2.00;;;1.55;;
49514;SDS011;35415;47.870;16.058;2024-03-23T07:37:04;5.18;;;3.08;;
49514;SDS011;35415;47.870;16.058;2024-03-23T07:39:30;2.40;;;1.90;;
49514;SDS011;35415;47.870;16.058;2024-03-23T07:41:59;2.75;;;2.03;;
49514;SDS011;35415;47.870;16.058;2024-03-23T07:44:25;2.50;;;1.98;;
49514;SDS011;35415;47.870;16.058;2024-03-23T07:46:52;2.95;;;1.60;;
49514;SDS011;35415;47.870;16.058;2024-03-23T07:49:19;2.60;;;1.80;;
49514;SDS011;35415;47.870;16.058;2024-03-23T07:51:47;2.58;;;1.60;;
49514;SDS011;35415;47.870;16.058;2024-03-23T07:54:13;6.65;;;2.42;;
49514;SDS011;35415;47.870;16.058;2024-03-23T07:56:40;3.92;;;2.25;;
49514;SDS011;35415;47.870;16.058;2024-03-23T07:59:06;2.47;;;1.90;;
49514;SDS011;35415;47.870;16.058;2024-03-23T08:01:33;2.65;;;1.70;;
49514;SDS011;35415;47.870;16.058;2024-03-23T08:03:59;1.85;;;1.50;;
49514;SDS011;35415;47.870;16.058;2024-03-23T08:06:28;2.55;;;1.55;;
49514;SDS011;35415;47.870;16.058;2024-03-23T08:08:55;2.88;;;1.40;;
49514;SDS011;35415;47.870;16.058;2024-03-23T08:11:26;3.25;;;1.65;;
49514;SDS011;35415;47.870;16.058;2024-03-23T08:13:52;2.30;;;1.60;;
49514;SDS011;35415;47.870;16.058;2024-03-23T08:16:19;2.88;;;1.60;;
49514;SDS011;35415;47.870;16.058;2024-03-23T08:18:47;3.42;;;1.30;;
49514;SDS011;35415;47.870;16.058;2024-03-23T08:21:13;3.47;;;1.80;;
49514;SDS011;35415;47.870;16.058;2024-03-23T08:23:42;2.05;;;1.60;;
49514;SDS011;35415;47.870;16.058;2024-03-23T08:26:08;2.38;;;1.40;;
49514;SDS011;35415;47.870;16.058;2024-03-23T08:28:37;1.60;;;1.40;;
49514;SDS011;35415;47.870;16.058;2024-03-23T08:31:03;1.95;;;1.33;;
49514;SDS011;35415;47.870;16.058;2024-03-23T08:33:31;2.13;;;1.20;;
49514;SDS011;35415;47.870;16.058;2024-03-23T08:35:58;3.08;;;1.20;;
49514;SDS011;35415;47.870;16.058;2024-03-23T08:38:26;5.43;;;1.30;;
49514;SDS011;35415;47.870;16.058;2024-03-23T08:40:57;1.48;;;1.23;;
49514;SDS011;35415;47.870;16.058;2024-03-23T08:43:25;3.70;;;1.58;;
49514;SDS011;35415;47.870;16.058;2024-03-23T08:45:52;1.95;;;1.30;;
49514;SDS011;35415;47.870;16.058;2024-03-23T08:48:19;1.65;;;1.52;;
49514;SDS011;35415;47.870;16.058;2024-03-23T08:50:46;3.85;;;1.77;;
49514;SDS011;35415;47.870;16.058;2024-03-23T08:53:14;2.25;;;1.60;;
49514;SDS011;35415;47.870;16.058;2024-03-23T08:55:40;3.47;;;1.80;;
49514;SDS011;35415;47.870;16.058;2024-03-23T08:58:09;7.35;;;1.90;;
49514;SDS011;35415;47.870;16.058;2024-03-23T09:00:35;1.90;;;1.50;;
49514;SDS011;35415;47.870;16.058;2024-03-23T09:03:03;6.88;;;1.70;;
49514;SDS011;35415;47.870;16.058;2024-03-23T09:05:32;2.22;;;1.30;;
49514;SDS011;35415;47.870;16.058;2024-03-23T09:08:06;3.13;;;1.20;;
49514;SDS011;35415;47.870;16.058;2024-03-23T09:10:38;3.10;;;1.65;;
49514;SDS011;35415;47.870;16.058;2024-03-23T09:13:06;1.63;;;1.20;;
49514;SDS011;35415;47.870;16.058;2024-03-23T09:15:34;2.30;;;1.50;;
49514;SDS011;35415;47.870;16.058;2024-03-23T09:18:03;1.95;;;1.40;;
49514;SDS011;35415;47.870;16.058;2024-03-23T09:20:32;1.95;;;1.30;;
49514;SDS011;35415;47.870;16.058;2024-03-23T09:22:59;4.20;;;3.25;;
49514;SDS011;35415;47.870;16.058;2024-03-23T09:25:28;10.20;;;5.13;;
49514;SDS011;35415;47.870;16.058;2024-03-23T09:27:55;8.07;;;4.10;;
49514;SDS011;35415;47.870;16.058;2024-03-23T09:30:22;5.60;;;2.80;;
49514;SDS011;35415;47.870;16.058;2024-03-23T09:32:56;3.30;;;2.17;;
49514;SDS011;35415;47.870;16.058;2024-03-23T09:35:22;2.33;;;1.60;;
49514;SDS011;35415;47.870;16.058;2024-03-23T09:37:51;2.05;;;1.00;;
49514;SDS011;35415;47.870;16.058;2024-03-23T09:40:20;1.00;;;0.80;;
49514;SDS011;35415;47.870;16.058;2024-03-23T09:42:49;0.75;;;0.70;;
49514;SDS011;35415;47.870;16.058;2024-03-23T09:45:17;1.10;;;0.70;;
49514;SDS011;35415;47.870;16.058;2024-03-23T09:47:47;4.13;;;1.80;;
49514;SDS011;35415;47.870;16.058;2024-03-23T09:50:17;1.77;;;0.90;;
49514;SDS011;35415;47.870;16.058;2024-03-23T09:52:45;1.67;;;0.80;;
49514;SDS011;35415;47.870;16.058;2024-03-23T09:55:12;2.30;;;0.90;;
49514;SDS011;35415;47.870;16.058;2024-03-23T09:57:40;5.78;;;2.13;;
49514;SDS011;35415;47.870;16.058;2024-03-23T10:00:06;2.65;;;1.38;;
49514;SDS011;35415;47.870;16.058;2024-03-23T10:02:34;1.77;;;1.00;;
49514;SDS011;35415;47.870;16.058;2024-03-23T10:05:01;1.20;;;1.00;;
49514;SDS011;35415;47.870;16.058;2024-03-23T10:07:29;3.80;;;0.90;;
49514;SDS011;35415;47.870;16.058;2024-03-23T10:09:56;1.45;;;0.70;;
49514;SDS011;35415;47.870;16.058;2024-03-23T10:12:23;2.95;;;1.00;;
49514;SDS011;35415;47.870;16.058;2024-03-23T10:14:52;2.85;;;0.80;;
49514;SDS011;35415;47.870;16.058;2024-03-23T10:17:20;2.17;;;0.80;;
49514;SDS011;35415;47.870;16.058;2024-03-23T10:19:49;2.03;;;1.02;;
49514;SDS011;35415;47.870;16.058;2024-03-23T10:22:18;1.38;;;0.80;;
49514;SDS011;35415;47.870;16.058;2024-03-23T10:24:47;1.23;;;0.85;;
49514;SDS011;35415;47.870;16.058;2024-03-23T10:27:15;3.20;;;0.93;;
49514;SDS011;35415;47.870;16.058;2024-03-23T10:29:43;0.90;;;0.70;;
49514;SDS011;35415;47.870;16.058;2024-03-23T10:32:10;1.25;;;0.80;;
49514;SDS011;35415;47.870;16.058;2024-03-23T10:34:37;1.50;;;0.77;;
49514;SDS011;35415;47.870;16.058;2024-03-23T10:37:05;2.00;;;0.80;;
49514;SDS011;35415;47.870;16.058;2024-03-23T10:39:33;1.45;;;1.10;;
49514;SDS011;35415;47.870;16.058;2024-03-23T10:42:06;1.05;;;0.80;;
49514;SDS011;35415;47.870;16.058;2024-03-23T10:44:33;1.27;;;0.98;;
49514;SDS011;35415;47.870;16.058;2024-03-23T10:47:01;1.15;;;0.80;;
49514;SDS011;35415;47.870;16.058;2024-03-23T10:49:28;1.20;;;0.80;;
49514;SDS011;35415;47.870;16.058;2024-03-23T10:51:58;1.55;;;0.95;;
49514;SDS011;35415;47.870;16.058;2024-03-23T10:54:25;0.80;;;0.80;;
49514;SDS011;35415;47.870;16.058;2024-03-23T10:56:53;1.05;;;0.80;;
49514;SDS011;35415;47.870;16.058;2024-03-23T10:59:24;2.38;;;1.05;;
49514;SDS011;35415;47.870;16.058;2024-03-23T11:01:56;4.20;;;1.30;;
49514;SDS011;35415;47.870;16.058;2024-03-23T11:04:34;3.42;;;0.90;;
49514;SDS011;35415;47.870;16.058;2024-03-23T11:07:11;1.50;;;0.85;;
49514;SDS011;35415;47.870;16.058;2024-03-23T11:09:57;1.55;;;1.10;;
49514;SDS011;35415;47.870;16.058;2024-03-23T11:12:34;1.23;;;0.63;;
49514;SDS011;35415;47.870;16.058;2024-03-23T11:15:03;1.38;;;0.90;;
49514;SDS011;35415;47.870;16.058;2024-03-23T11:17:32;4.20;;;1.10;;
49514;SDS011;35415;47.870;16.058;2024-03-23T11:20:01;1.42;;;0.90;;
49514;SDS011;35415;47.870;16.058;2024-03-23T11:22:40;1.88;;;0.90;;
49514;SDS011;35415;47.870;16.058;2024-03-23T11:25:14;3.10;;;0.93;;
49514;SDS011;35415;47.870;16.058;2024-03-23T11:27:43;3.45;;;0.93;;
49514;SDS011;35415;47.870;16.058;2024-03-23T11:30:15;3.83;;;0.80;;
49514;SDS011;35415;47.870;16.058;2024-03-23T11:32:44;1.48;;;1.10;;
49514;SDS011;35415;47.870;16.058;2024-03-23T11:35:11;1.92;;;1.00;;
49514;SDS011;35415;47.870;16.058;2024-03-23T11:38:04;1.20;;;1.00;;
49514;SDS011;35415;47.870;16.058;2024-03-23T11:40:31;3.05;;;0.90;;
49514;SDS011;35415;47.870;16.058;2024-03-23T11:42:59;1.10;;;1.00;;
49514;SDS011;35415;47.870;16.058;2024-03-23T11:45:28;3.10;;;0.90;;
49514;SDS011;35415;47.870;16.058;2024-03-23T11:48:04;1.38;;;0.93;;
49514;SDS011;35415;47.870;16.058;2024-03-23T11:50:32;2.10;;;1.08;;
49514;SDS011;35415;47.870;16.058;2024-03-23T11:53:12;4.05;;;0.95;;
49514;SDS011;35415;47.870;16.058;2024-03-23T11:55:45;0.80;;;0.80;;
49514;SDS011;35415;47.870;16.058;2024-03-23T11:58:13;1.55;;;1.10;;
49514;SDS011;35415;47.870;16.058;2024-03-23T12:00:43;1.70;;;1.20;;
49514;SDS011;35415;47.870;16.058;2024-03-23T12:03:17;4.85;;;1.60;;
49514;SDS011;35415;47.870;16.058;2024-03-23T12:05:47;3.03;;;1.30;;
49514;SDS011;35415;47.870;16.058;2024-03-23T12:08:18;5.50;;;1.27;;
49514;SDS011;35415;47.870;16.058;2024-03-23T12:10:47;2.15;;;1.20;;
49514;SDS011;35415;47.870;16.058;2024-03-23T12:13:16;3.47;;;2.28;;
49514;SDS011;35415;47.870;16.058;2024-03-23T12:15:50;2.13;;;1.50;;
49514;SDS011;35415;47.870;16.058;2024-03-23T12:18:18;2.35;;;1.60;;
49514;SDS011;35415;47.870;16.058;2024-03-23T12:20:49;1.25;;;1.17;;
49514;SDS011;35415;47.870;16.058;2024-03-23T12:23:17;1.45;;;1.20;;
49514;SDS011;35415;47.870;16.058;2024-03-23T12:25:43;2.60;;;2.03;;
49514;SDS011;35415;47.870;16.058;2024-03-23T12:28:10;1.20;;;1.10;;
49514;SDS011;35415;47.870;16.058;2024-03-23T12:30:37;1.95;;;1.40;;
49514;SDS011;35415;47.870;16.058;2024-03-23T12:33:07;2.28;;;1.35;;
49514;SDS011;35415;47.870;16.058;2024-03-23T12:35:33;2.75;;;1.50;;
49514;SDS011;35415;47.870;16.058;2024-03-23T12:38:01;1.23;;;1.13;;
49514;SDS011;35415;47.870;16.058;2024-03-23T12:40:27;1.83;;;1.40;;
49514;SDS011;35415;47.870;16.058;2024-03-23T12:42:54;0.95;;;0.95;;
49514;SDS011;35415;47.870;16.058;2024-03-23T12:45:21;16.50;;;1.75;;
49514;SDS011;35415;47.870;16.058;2024-03-23T12:47:48;11.43;;;2.58;;
49514;SDS011;35415;47.870;16.058;2024-03-23T12:50:16;12.48;;;1.30;;
49514;SDS011;35415;47.870;16.058;2024-03-23T12:52:43;2.60;;;1.27;;
49514;SDS011;35415;47.870;16.058;2024-03-23T12:55:09;1.67;;;1.20;;
49514;SDS011;35415;47.870;16.058;2024-03-23T12:57:36;1.10;;;0.85;;
49514;SDS011;35415;47.870;16.058;2024-03-23T13:00:03;2.15;;;0.80;;
49514;SDS011;35415;47.870;16.058;2024-03-23T13:02:31;0.80;;;0.80;;
49514;SDS011;35415;47.870;16.058;2024-03-23T13:05:00;1.25;;;0.90;;
49514;SDS011;35415;47.870;16.058;2024-03-23T13:07:29;0.70;;;0.60;;
49514;SDS011;35415;47.870;16.058;2024-03-23T13:09:55;0.65;;;0.65;;
49514;SDS011;35415;47.870;16.058;2024-03-23T13:12:23;2.25;;;0.80;;
49514;SDS011;35415;47.870;16.058;2024-03-23T13:14:49;0.80;;;0.65;;
49514;SDS011;35415;47.870;16.058;2024-03-23T13:17:16;1.05;;;0.70;;
49514;SDS011;35415;47.870;16.058;2024-03-23T13:19:43;0.60;;;0.60;;
49514;SDS011;35415;47.870;16.058;2024-03-23T13:22:10;1.27;;;0.70;;
49514;SDS011;35415;47.870;16.058;2024-03-23T13:24:38;3.72;;;0.80;;
49514;SDS011;35415;47.870;16.058;2024-03-23T13:27:05;8.95;;;0.90;;
49514;SDS011;35415;47.870;16.058;2024-03-23T13:29:33;2.95;;;0.85;;
49514;SDS011;35415;47.870;16.058;2024-03-23T13:32:00;0.52;;;0.52;;
49514;SDS011;35415;47.870;16.058;2024-03-23T13:34:29;3.20;;;0.40;;
49514;SDS011;35415;47.870;16.058;2024-03-23T13:36:58;0.50;;;0.45;;
49514;SDS011;35415;47.870;16.058;2024-03-23T13:39:24;2.83;;;0.82;;
49514;SDS011;35415;47.870;16.058;2024-03-23T13:41:54;0.50;;;0.40;;
49514;SDS011;35415;47.870;16.058;2024-03-23T13:44:20;0.40;;;0.40;;
49514;SDS011;35415;47.870;16.058;2024-03-23T13:46:47;0.30;;;0.30;;
49514;SDS011;35415;47.870;16.058;2024-03-23T13:49:20;2.70;;;0.50;;
49514;SDS011;35415;47.870;16.058;2024-03-23T13:51:54;0.28;;;0.28;;
49514;SDS011;35415;47.870;16.058;2024-03-23T13:54:22;0.50;;;0.40;;
49514;SDS011;35415;47.870;16.058;2024-03-23T13:56:50;0.30;;;0.30;;
49514;SDS011;35415;47.870;16.058;2024-03-23T13:59:18;1.23;;;0.50;;
49514;SDS011;35415;47.870;16.058;2024-03-23T14:01:46;0.20;;;0.20;;
49514;SDS011;35415;47.870;16.058;2024-03-23T14:04:12;0.30;;;0.30;;
49514;SDS011;35415;47.870;16.058;2024-03-23T14:06:41;0.32;;;0.30;;
49514;SDS011;35415;47.870;16.058;2024-03-23T14:09:08;1.05;;;0.60;;
49514;SDS011;35415;47.870;16.058;2024-03-23T14:11:35;0.88;;;0.52;;
49514;SDS011;35415;47.870;16.058;2024-03-23T14:14:02;0.20;;;0.20;;
49514;SDS011;35415;47.870;16.058;2024-03-23T14:16:31;7.05;;;0.50;;
49514;SDS011;35415;47.870;16.058;2024-03-23T14:18:57;0.22;;;0.22;;
49514;SDS011;35415;47.870;16.058;2024-03-23T14:21:24;2.20;;;0.52;;
49514;SDS011;35415;47.870;16.058;2024-03-23T14:23:51;0.20;;;0.20;;
49514;SDS011;35415;47.870;16.058;2024-03-23T14:26:19;1.90;;;1.25;;
49514;SDS011;35415;47.870;16.058;2024-03-23T14:28:45;0.85;;;0.43;;
49514;SDS011;35415;47.870;16.058;2024-03-23T14:31:12;3.15;;;0.35;;
49514;SDS011;35415;47.870;16.058;2024-03-23T14:33:41;0.85;;;0.63;;
49514;SDS011;35415;47.870;16.058;2024-03-23T14:36:11;1.13;;;0.40;;
49514;SDS011;35415;47.870;16.058;2024-03-23T14:38:38;0.52;;;0.43;;
49514;SDS011;35415;47.870;16.058;2024-03-23T14:41:05;0.50;;;0.50;;
49514;SDS011;35415;47.870;16.058;2024-03-23T14:43:37;0.52;;;0.50;;
49514;SDS011;35415;47.870;16.058;2024-03-23T14:46:05;0.85;;;0.40;;
49514;SDS011;35415;47.870;16.058;2024-03-23T14:48:32;2.95;;;0.40;;
49514;SDS011;35415;47.870;16.058;2024-03-23T14:51:01;0.98;;;0.40;;
49514;SDS011;35415;47.870;16.058;2024-03-23T14:53:30;0.70;;;0.30;;
49514;SDS011;35415;47.870;16.058;2024-03-23T14:55:58;2.50;;;0.50;;
49514;SDS011;35415;47.870;16.058;2024-03-23T14:58:25;0.95;;;0.30;;
49514;SDS011;35415;47.870;16.058;2024-03-23T15:00:59;0.35;;;0.30;;
49514;SDS011;35415;47.870;16.058;2024-03-23T15:03:26;1.25;;;0.30;;
49514;SDS011;35415;47.870;16.058;2024-03-23T15:05:53;0.20;;;0.20;;
49514;SDS011;35415;47.870;16.058;2024-03-23T15:08:22;0.52;;;0.35;;
49514;SDS011;35415;47.870;16.058;2024-03-23T15:10:49;0.32;;;0.30;;
49514;SDS011;35415;47.870;16.058;2024-03-23T15:13:16;0.20;;;0.13;;
49514;SDS011;35415;47.870;16.058;2024-03-23T15:15:44;0.57;;;0.47;;
49514;SDS011;35415;47.870;16.058;2024-03-23T15:18:10;1.20;;;0.35;;
49514;SDS011;35415;47.870;16.058;2024-03-23T15:20:40;1.70;;;0.40;;
49514;SDS011;35415;47.870;16.058;2024-03-23T15:23:06;0.88;;;0.43;;
49514;SDS011;35415;47.870;16.058;2024-03-23T15:25:35;2.45;;;0.15;;
49514;SDS011;35415;47.870;16.058;2024-03-23T15:28:06;0.57;;;0.40;;
49514;SDS011;35415;47.870;16.058;2024-03-23T15:30:39;0.90;;;0.40;;